createdAt,value
2022-10-01T00:00:40.547Z,15.73
2022-10-01T00:04:05.879Z,15.81
2022-10-01T00:07:15.194Z,15.82
2022-10-01T00:10:19.677Z,15.71
2022-10-01T00:13:24.474Z,15.67
2022-10-01T00:16:30.898Z,15.72
2022-10-01T00:19:36.517Z,15.67
2022-10-01T00:22:41.362Z,15.81
2022-10-01T00:25:45.504Z,15.70
2022-10-01T00:28:54.073Z,15.62
2022-10-01T00:31:59.871Z,15.66
2022-10-01T00:35:10.097Z,15.63
2022-10-01T00:38:15.594Z,15.64
2022-10-01T00:41:39.512Z,15.49
2022-10-01T00:44:44.827Z,15.63
2022-10-01T00:47:56.724Z,15.32
2022-10-01T00:51:03.069Z,15.46
2022-10-01T00:54:13.076Z,15.37
2022-10-01T00:57:20.941Z,15.46
2022-10-01T01:00:25.285Z,15.41
2022-10-01T01:03:31.740Z,14.95
2022-10-01T01:06:38.101Z,15.14
2022-10-01T01:09:47.952Z,15.41
2022-10-01T01:13:07.658Z,15.45
2022-10-01T01:16:20.353Z,15.26
2022-10-01T01:19:40.501Z,15.24
2022-10-01T01:22:57.670Z,15.36
2022-10-01T01:26:13.928Z,15.27
2022-10-01T01:29:25.224Z,15.39
2022-10-01T01:32:34.188Z,15.20
2022-10-01T01:35:44.158Z,15.23
2022-10-01T01:39:11.038Z,15.36
2022-10-01T01:42:20.267Z,15.28
2022-10-01T01:45:31.475Z,15.34
2022-10-01T01:48:39.250Z,15.32
2022-10-01T01:51:50.747Z,15.34
2022-10-01T01:54:57.676Z,15.43
2022-10-01T01:58:02.591Z,15.48
2022-10-01T02:01:08.411Z,15.42
2022-10-01T02:04:22.079Z,15.51
2022-10-01T02:07:55.805Z,15.55
2022-10-01T02:11:21.630Z,15.55
2022-10-01T02:14:36.842Z,15.49
2022-10-01T02:17:51.816Z,15.49
2022-10-01T02:21:02.477Z,15.55
2022-10-01T02:24:14.615Z,15.57
2022-10-01T02:27:50.301Z,15.36
2022-10-01T02:31:10.265Z,15.21
2022-10-01T02:34:20.376Z,15.32
2022-10-01T02:37:27.807Z,15.29
2022-10-01T02:40:42.296Z,15.23
2022-10-01T02:43:53.455Z,15.08
2022-10-01T02:47:04.054Z,15.26
2022-10-01T02:50:12.916Z,15.31
2022-10-01T02:53:42.906Z,15.33
2022-10-01T02:57:10.070Z,15.14
2022-10-01T03:00:17.161Z,15.24
2022-10-01T03:03:21.253Z,15.24
2022-10-01T03:06:28.103Z,15.21
2022-10-01T03:09:32.495Z,15.30
2022-10-01T03:12:36.745Z,15.28
2022-10-01T03:15:40.365Z,15.30
2022-10-01T03:18:44.196Z,15.27
2022-10-01T03:21:51.529Z,15.46
2022-10-01T03:24:55.197Z,15.50
2022-10-01T03:28:29.875Z,15.60
2022-10-01T03:31:48.587Z,15.57
2022-10-01T03:34:59.262Z,15.64
2022-10-01T03:38:04.418Z,15.80
2022-10-01T03:41:08.527Z,15.93
2022-10-01T03:44:13.851Z,16.03
2022-10-01T03:47:18.913Z,15.92
2022-10-01T03:50:22.837Z,15.82
2022-10-01T03:53:30.527Z,15.81
2022-10-01T03:56:35.439Z,15.83
2022-10-01T03:59:39.370Z,15.74
2022-10-01T04:02:43.346Z,15.92
2022-10-01T04:05:47.455Z,15.93
2022-10-01T04:08:52.928Z,16.02
2022-10-01T04:11:56.551Z,15.99
2022-10-01T04:15:10.189Z,16.06
2022-10-01T04:18:21.637Z,15.98
2022-10-01T04:21:25.384Z,15.95
2022-10-01T04:24:30.314Z,16.00
2022-10-01T04:27:34.177Z,15.94
2022-10-01T04:30:40.859Z,15.97
2022-10-01T04:33:45.031Z,15.92
2022-10-01T04:37:15.116Z,15.93
2022-10-01T04:40:40.346Z,16.02
2022-10-01T04:43:45.191Z,16.03
2022-10-01T04:46:49.403Z,16.13
2022-10-01T04:49:54.619Z,16.21
2022-10-01T04:52:58.564Z,16.27
2022-10-01T04:56:03.717Z,16.24
2022-10-01T04:59:07.503Z,16.10
2022-10-01T05:02:11.555Z,15.99
2022-10-01T05:05:15.977Z,15.51
2022-10-01T05:08:19.849Z,15.61
2022-10-01T05:11:26.084Z,15.69
2022-10-01T05:14:31.614Z,15.81
2022-10-01T05:17:36.597Z,16.03
2022-10-01T05:20:40.835Z,16.24
2022-10-01T05:23:45.723Z,16.39
2022-10-01T05:26:54.524Z,16.55
2022-10-01T05:29:59.476Z,16.53
2022-10-01T05:33:06.982Z,15.88
2022-10-01T05:36:12.483Z,15.80
2022-10-01T05:39:17.882Z,16.04
2022-10-01T05:42:23.973Z,16.10
2022-10-01T05:45:30.337Z,16.38
2022-10-01T05:48:37.883Z,16.49
2022-10-01T05:51:41.755Z,16.56
2022-10-01T05:54:46.177Z,16.29
2022-10-01T05:57:58.879Z,16.57
2022-10-01T06:01:04.346Z,16.66
2022-10-01T06:04:08.506Z,16.77
2022-10-01T06:07:13.433Z,16.87
2022-10-01T06:10:17.606Z,16.84
2022-10-01T06:13:23.230Z,16.69
2022-10-01T06:16:26.906Z,16.75
2022-10-01T06:19:31.147Z,16.73
2022-10-01T06:22:35.026Z,16.87
2022-10-01T06:25:41.869Z,17.05
2022-10-01T06:28:50.048Z,17.22
2022-10-01T06:31:55.043Z,17.23
2022-10-01T06:34:58.623Z,17.35
2022-10-01T06:38:03.275Z,17.37
2022-10-01T06:41:07.470Z,17.27
2022-10-01T06:44:12.550Z,17.29
2022-10-01T06:47:16.094Z,17.30
2022-10-01T06:50:19.867Z,17.13
2022-10-01T06:53:23.420Z,17.35
2022-10-01T06:56:27.162Z,17.47
2022-10-01T06:59:32.657Z,17.61
2022-10-01T07:02:37.110Z,17.54
2022-10-01T07:05:43.218Z,17.59
2022-10-01T07:08:51.769Z,17.51
2022-10-01T07:11:57.456Z,17.72
2022-10-01T07:15:03.083Z,17.61
2022-10-01T07:18:09.672Z,17.55
2022-10-01T07:21:13.532Z,17.84
2022-10-01T07:24:17.003Z,17.73
2022-10-01T07:27:21.195Z,17.77
2022-10-01T07:30:26.900Z,18.06
2022-10-01T07:33:31.249Z,18.21
2022-10-01T07:36:34.682Z,18.26
2022-10-01T07:39:38.440Z,18.31
2022-10-01T07:42:41.929Z,18.47
2022-10-01T07:45:47.802Z,18.63
2022-10-01T07:48:51.372Z,18.73
2022-10-01T07:51:55.998Z,18.89
2022-10-01T07:54:59.408Z,19.04
2022-10-01T07:58:03.262Z,19.09
2022-10-01T08:01:09.727Z,19.14
2022-10-01T08:04:30.737Z,19.19
2022-10-01T08:07:35.760Z,19.14
2022-10-01T08:10:39.985Z,19.08
2022-10-01T08:13:44.035Z,19.18
2022-10-01T08:16:49.486Z,19.09
2022-10-01T08:19:53.242Z,19.11
2022-10-01T08:23:02.873Z,19.24
2022-10-01T08:26:08.598Z,19.32
2022-10-01T08:29:16.958Z,19.25
2022-10-01T08:32:23.395Z,19.26
2022-10-01T08:35:28.148Z,19.10
2022-10-01T08:38:31.561Z,19.20
2022-10-01T08:41:46.155Z,19.35
2022-10-01T08:44:52.829Z,19.43
2022-10-01T08:48:04.949Z,19.50
2022-10-01T08:51:13.423Z,19.65
2022-10-01T08:54:28.718Z,19.66
2022-10-01T08:57:38.298Z,19.68
2022-10-01T09:00:46.317Z,19.60
2022-10-01T09:03:52.099Z,19.70
2022-10-01T09:07:05.498Z,19.70
2022-10-01T09:10:25.763Z,19.64
2022-10-01T09:13:50.268Z,19.69
2022-10-01T09:17:03.524Z,19.71
2022-10-01T09:20:17.789Z,19.81
2022-10-01T09:23:28.235Z,19.81
2022-10-01T09:26:32.947Z,19.94
2022-10-01T09:29:43.019Z,19.95
2022-10-01T09:32:53.395Z,20.03
2022-10-01T09:36:08.882Z,19.89
2022-10-01T09:39:20.151Z,19.99
2022-10-01T09:42:28.481Z,20.01
2022-10-01T09:45:32.620Z,20.13
2022-10-01T09:48:41.977Z,20.26
2022-10-01T09:51:53.664Z,20.32
2022-10-01T09:55:01.076Z,20.31
2022-10-01T09:58:12.823Z,20.43
2022-10-01T10:01:29.810Z,20.54
2022-10-01T10:04:33.917Z,20.51
2022-10-01T10:07:39.817Z,20.55
2022-10-01T10:10:52.265Z,20.73
2022-10-01T10:14:00.175Z,20.98
2022-10-01T10:17:08.236Z,21.05
2022-10-01T10:20:22.534Z,21.13
2022-10-01T10:23:29.379Z,21.15
2022-10-01T10:26:35.622Z,21.29
2022-10-01T10:29:39.620Z,21.39
2022-10-01T10:32:45.714Z,21.49
2022-10-01T10:35:59.274Z,21.59
2022-10-01T10:39:06.147Z,21.78
2022-10-01T10:42:16.397Z,21.88
2022-10-01T10:45:23.765Z,22.01
2022-10-01T10:48:33.049Z,22.11
2022-10-01T10:51:54.091Z,22.01
2022-10-01T10:55:01.160Z,22.18
2022-10-01T10:58:12.419Z,22.21
2022-10-01T11:01:20.183Z,22.38
2022-10-01T11:04:39.405Z,22.42
2022-10-01T11:07:46.447Z,22.54
2022-10-01T11:11:04.833Z,22.52
2022-10-01T11:14:23.912Z,22.50
2022-10-01T11:17:58.689Z,22.46
2022-10-01T11:21:22.292Z,22.40
2022-10-01T11:24:46.179Z,22.43
2022-10-01T11:28:04.794Z,22.50
2022-10-01T11:31:19.770Z,22.61
2022-10-01T11:34:42.601Z,22.60
2022-10-01T11:37:59.928Z,22.66
2022-10-01T11:41:16.275Z,22.80
2022-10-01T11:44:30.733Z,22.86
2022-10-01T11:47:41.333Z,22.99
2022-10-01T11:50:49.403Z,23.11
2022-10-01T11:53:58.124Z,23.17
2022-10-01T11:57:23.456Z,23.20
2022-10-01T12:00:29.429Z,23.25
2022-10-01T12:03:41.347Z,23.31
2022-10-01T12:06:54.655Z,23.24
2022-10-01T12:10:08.773Z,23.29
2022-10-01T12:13:22.788Z,23.28
2022-10-01T12:16:40.500Z,23.36
2022-10-01T12:19:48.040Z,23.53
2022-10-01T12:22:54.351Z,23.50
2022-10-01T12:26:09.158Z,23.56
2022-10-01T12:29:19.279Z,23.56
2022-10-01T12:32:34.066Z,23.49
2022-10-01T12:35:55.596Z,23.46
2022-10-01T12:39:15.247Z,23.49
2022-10-01T12:42:36.730Z,23.51
2022-10-01T12:45:49.772Z,23.43
2022-10-01T12:49:05.107Z,23.55
2022-10-01T12:52:18.204Z,23.57
2022-10-01T12:55:34.326Z,23.67
2022-10-01T12:58:54.399Z,23.67
2022-10-01T13:02:16.384Z,23.69
2022-10-01T13:05:33.038Z,23.75
2022-10-01T13:08:52.685Z,23.72
2022-10-01T13:12:15.108Z,23.63
2022-10-01T13:15:23.323Z,23.69
2022-10-01T13:18:36.597Z,23.69
2022-10-01T13:21:58.960Z,23.60
2022-10-01T13:25:22.847Z,23.40
2022-10-01T13:28:34.270Z,23.50
2022-10-01T13:31:41.459Z,23.54
2022-10-01T13:34:46.178Z,23.59
2022-10-01T13:37:51.619Z,23.62
2022-10-01T13:40:59.881Z,23.67
2022-10-01T13:44:15.060Z,23.80
2022-10-01T13:47:21.241Z,23.72
2022-10-01T13:50:26.503Z,23.79
2022-10-01T13:53:34.768Z,23.73
2022-10-01T13:56:39.256Z,23.83
2022-10-01T13:59:43.920Z,23.89
2022-10-01T14:03:02.520Z,23.97
2022-10-01T14:06:14.284Z,24.14
2022-10-01T14:09:25.781Z,24.15
2022-10-01T14:12:49.715Z,24.15
2022-10-01T14:16:01.409Z,24.19
2022-10-01T14:19:09.750Z,24.23
2022-10-01T14:22:24.963Z,24.11
2022-10-01T14:25:53.662Z,24.06
2022-10-01T14:29:08.251Z,23.99
2022-10-01T14:32:26.840Z,23.99
2022-10-01T14:35:33.579Z,24.04
2022-10-01T14:38:37.162Z,24.03
2022-10-01T14:41:46.342Z,24.05
2022-10-01T14:44:50.418Z,24.02
2022-10-01T14:48:02.763Z,23.92
2022-10-01T14:51:08.427Z,23.87
2022-10-01T14:54:13.330Z,23.86
2022-10-01T14:57:29.845Z,23.75
2022-10-01T15:00:35.917Z,23.77
2022-10-01T15:03:43.108Z,23.75
2022-10-01T15:06:48.130Z,23.73
2022-10-01T15:09:51.833Z,23.73
2022-10-01T15:12:57.657Z,23.75
2022-10-01T15:16:03.967Z,23.71
2022-10-01T15:19:10.550Z,23.69
2022-10-01T15:22:16.471Z,23.66
2022-10-01T15:25:24.172Z,23.66
2022-10-01T15:28:31.863Z,23.65
2022-10-01T15:31:36.268Z,23.62
2022-10-01T15:34:41.870Z,23.59
2022-10-01T15:37:50.259Z,23.52
2022-10-01T15:41:14.007Z,23.50
2022-10-01T15:44:46.051Z,23.37
2022-10-01T15:47:51.798Z,23.35
2022-10-01T15:51:01.466Z,22.56
2022-10-01T15:54:10.036Z,21.76
2022-10-01T15:57:20.289Z,21.34
2022-10-01T16:00:28.031Z,20.97
2022-10-01T16:03:35.180Z,20.80
2022-10-01T16:06:42.887Z,20.53
2022-10-01T16:09:53.926Z,20.36
2022-10-01T16:12:57.423Z,20.30
2022-10-01T16:16:19.678Z,20.16
2022-10-01T16:19:25.495Z,19.93
2022-10-01T16:22:33.056Z,19.72
2022-10-01T16:25:45.286Z,19.59
2022-10-01T16:28:54.546Z,19.65
2022-10-01T16:32:02.726Z,19.63
2022-10-01T16:35:21.681Z,19.70
2022-10-01T16:38:25.316Z,19.72
2022-10-01T16:41:30.608Z,19.59
2022-10-01T16:44:35.540Z,19.41
2022-10-01T16:47:41.773Z,19.34
2022-10-01T16:50:46.894Z,19.44
2022-10-01T16:53:50.766Z,19.40
2022-10-01T16:56:55.447Z,19.28
2022-10-01T16:59:59.315Z,19.49
2022-10-01T17:03:06.206Z,19.30
2022-10-01T17:06:09.936Z,19.44
2022-10-01T17:09:13.549Z,19.48
2022-10-01T17:12:17.704Z,19.44
2022-10-01T17:15:23.499Z,19.31
2022-10-01T17:18:29.386Z,19.46
2022-10-01T17:21:35.118Z,19.63
2022-10-01T17:24:38.932Z,19.52
2022-10-01T17:27:42.685Z,19.45
2022-10-01T17:30:48.757Z,19.20
2022-10-01T17:33:53.529Z,19.39
2022-10-01T17:36:59.824Z,19.58
2022-10-01T17:40:03.943Z,19.76
2022-10-01T17:43:07.836Z,19.53
2022-10-01T17:46:11.282Z,19.33
2022-10-01T17:49:16.620Z,19.30
2022-10-01T17:52:20.024Z,19.31
2022-10-01T17:55:23.943Z,19.00
2022-10-01T17:58:27.949Z,18.84
2022-10-01T18:01:32.748Z,18.63
2022-10-01T18:04:43.213Z,18.15
2022-10-01T18:07:46.983Z,18.01
2022-10-01T18:10:50.498Z,17.80
2022-10-01T18:13:57.478Z,17.65
2022-10-01T18:17:19.844Z,17.75
2022-10-01T18:20:25.731Z,17.96
2022-10-01T18:23:29.301Z,18.16
2022-10-01T18:26:33.942Z,18.29
2022-10-01T18:29:38.878Z,18.35
2022-10-01T18:32:46.802Z,18.31
2022-10-01T18:35:58.014Z,18.52
2022-10-01T18:39:11.551Z,18.64
2022-10-01T18:42:20.372Z,18.82
2022-10-01T18:45:41.340Z,18.80
2022-10-01T18:49:02.875Z,18.70
2022-10-01T18:52:18.839Z,18.55
2022-10-01T18:55:54.625Z,18.37
2022-10-01T18:59:29.284Z,18.67
2022-10-01T19:03:10.974Z,18.68
2022-10-01T19:06:59.230Z,18.81
2022-10-01T19:10:17.219Z,18.83
2022-10-01T19:13:29.097Z,18.87
2022-10-01T19:16:43.341Z,18.99
2022-10-01T19:20:01.759Z,18.86
2022-10-01T19:23:31.131Z,19.02
2022-10-01T19:26:44.778Z,19.01
2022-10-01T19:30:02.458Z,18.90
2022-10-01T19:33:10.998Z,18.92
2022-10-01T19:36:23.076Z,18.69
2022-10-01T19:39:31.557Z,18.48
2022-10-01T19:42:39.799Z,18.55
2022-10-01T19:45:52.874Z,18.58
2022-10-01T19:49:01.961Z,18.69
2022-10-01T19:52:13.656Z,18.65
2022-10-01T19:55:20.707Z,18.76
2022-10-01T19:58:26.089Z,18.79
2022-10-01T20:01:38.929Z,18.83
2022-10-01T20:04:52.355Z,18.95
2022-10-01T20:08:02.265Z,18.99
2022-10-01T20:11:15.143Z,19.01
2022-10-01T20:14:50.497Z,19.00
2022-10-01T20:18:13.585Z,18.96
2022-10-01T20:21:31.656Z,18.88
2022-10-01T20:24:49.264Z,19.02
2022-10-01T20:28:05.513Z,18.93
2022-10-01T20:31:18.324Z,18.86
2022-10-01T20:34:31.172Z,18.84
2022-10-01T20:37:51.987Z,18.95
2022-10-01T20:40:58.359Z,18.91
2022-10-01T20:44:09.729Z,18.95
2022-10-01T20:47:23.187Z,18.86
2022-10-01T20:50:32.573Z,18.85
2022-10-01T20:53:41.949Z,18.88
2022-10-01T20:57:01.024Z,18.70
2022-10-01T21:00:09.203Z,18.74
2022-10-01T21:03:25.275Z,18.65
2022-10-01T21:06:37.178Z,18.58
2022-10-01T21:09:45.186Z,18.56
2022-10-01T21:12:59.199Z,18.71
2022-10-01T21:16:17.894Z,18.66
2022-10-01T21:19:34.072Z,18.67
2022-10-01T21:22:54.615Z,18.24
2022-10-01T21:26:06.814Z,18.21
2022-10-01T21:29:30.390Z,18.19
2022-10-01T21:33:01.936Z,18.21
2022-10-01T21:36:34.332Z,18.05
2022-10-01T21:39:48.756Z,18.09
2022-10-01T21:43:01.864Z,18.08
2022-10-01T21:46:16.330Z,18.09
2022-10-01T21:49:32.208Z,17.89
2022-10-01T21:52:45.589Z,17.82
2022-10-01T21:56:03.766Z,17.39
2022-10-01T21:59:17.053Z,17.10
2022-10-01T22:02:33.934Z,17.27
2022-10-01T22:05:45.019Z,17.56
2022-10-01T22:09:14.389Z,17.69
2022-10-01T22:12:18.833Z,17.80
2022-10-01T22:15:29.832Z,17.88
2022-10-01T22:18:37.503Z,17.60
2022-10-01T22:21:44.927Z,17.64
2022-10-01T22:24:52.235Z,17.69
2022-10-01T22:28:02.540Z,17.73
2022-10-01T22:31:10.239Z,17.65
2022-10-01T22:34:18.555Z,17.71
2022-10-01T22:37:28.082Z,17.61
2022-10-01T22:40:40.459Z,17.64
2022-10-01T22:43:45.767Z,17.53
2022-10-01T22:47:08.642Z,17.52
2022-10-01T22:50:35.163Z,17.36
2022-10-01T22:53:52.999Z,17.32
2022-10-01T22:57:11.675Z,17.25
2022-10-01T23:00:16.878Z,17.13
2022-10-01T23:03:28.842Z,17.20
2022-10-01T23:06:38.940Z,17.24
2022-10-01T23:09:50.697Z,17.06
2022-10-01T23:13:05.536Z,17.08
2022-10-01T23:16:16.824Z,17.01
2022-10-01T23:19:39.787Z,16.91
2022-10-01T23:23:01.301Z,16.92
2022-10-01T23:26:30.812Z,16.74
2022-10-01T23:29:56.469Z,16.85
2022-10-01T23:33:23.108Z,16.87
2022-10-01T23:36:35.637Z,16.76
2022-10-01T23:39:48.433Z,16.64
2022-10-01T23:43:00.812Z,16.55
2022-10-01T23:46:13.068Z,16.44
2022-10-01T23:49:18.574Z,16.55
2022-10-01T23:52:31.073Z,16.35
2022-10-01T23:56:01.451Z,16.57
2022-10-01T23:59:14.086Z,16.64
